sensor_id;sensor_type;location;lat;lon;timestamp;temperature;humidity
5938;DHT22;2994;51.220;4.412;2023-04-29T00:02:06;13.47;72.27
5938;DHT22;2994;51.220;4.412;2023-04-29T00:04:32;13.46;71.96
5938;DHT22;2994;51.220;4.412;2023-04-29T00:06:58;13.59;71.76
5938;DHT22;2994;51.220;4.412;2023-04-29T00:09:23;13.59;71.55
5938;DHT22;2994;51.220;4.412;2023-04-29T00:11:49;13.41;71.58
5938;DHT22;2994;51.220;4.412;2023-04-29T00:14:14;13.52;71.09
5938;DHT22;2994;51.220;4.412;2023-04-29T00:16:40;13.43;71.42
5938;DHT22;2994;51.220;4.412;2023-04-29T00:19:06;13.48;71.27
5938;DHT22;2994;51.220;4.412;2023-04-29T00:21:31;13.35;71.58
5938;DHT22;2994;51.220;4.412;2023-04-29T00:23:57;13.15;73.03
5938;DHT22;2994;51.220;4.412;2023-04-29T00:26:23;13.15;72.53
5938;DHT22;2994;51.220;4.412;2023-04-29T00:28:48;13.29;72.02
5938;DHT22;2994;51.220;4.412;2023-04-29T00:31:14;13.23;72.32
5938;DHT22;2994;51.220;4.412;2023-04-29T00:33:39;13.35;72.07
5938;DHT22;2994;51.220;4.412;2023-04-29T00:36:06;13.20;72.49
5938;DHT22;2994;51.220;4.412;2023-04-29T00:38:31;13.23;72.51
5938;DHT22;2994;51.220;4.412;2023-04-29T00:40:57;13.35;72.13
5938;DHT22;2994;51.220;4.412;2023-04-29T00:43:22;13.44;71.93
5938;DHT22;2994;51.220;4.412;2023-04-29T00:45:48;13.43;71.63
5938;DHT22;2994;51.220;4.412;2023-04-29T00:48:15;13.53;71.17
5938;DHT22;2994;51.220;4.412;2023-04-29T00:50:40;13.50;71.31
5938;DHT22;2994;51.220;4.412;2023-04-29T00:53:07;13.54;71.06
5938;DHT22;2994;51.220;4.412;2023-04-29T00:55:34;13.50;70.97
5938;DHT22;2994;51.220;4.412;2023-04-29T00:57:59;13.58;70.52
5938;DHT22;2994;51.220;4.412;2023-04-29T01:00:27;13.27;71.13
5938;DHT22;2994;51.220;4.412;2023-04-29T01:02:52;13.20;71.41
5938;DHT22;2994;51.220;4.412;2023-04-29T01:05:22;13.11;72.02
5938;DHT22;2994;51.220;4.412;2023-04-29T01:08:02;13.10;71.42
5938;DHT22;2994;51.220;4.412;2023-04-29T01:10:30;13.29;70.84
5938;DHT22;2994;51.220;4.412;2023-04-29T01:13:16;13.14;72.03
5938;DHT22;2994;51.220;4.412;2023-04-29T01:15:53;13.37;71.02
5938;DHT22;2994;51.220;4.412;2023-04-29T01:18:25;13.38;70.18
5938;DHT22;2994;51.220;4.412;2023-04-29T01:20:52;13.26;70.32
5938;DHT22;2994;51.220;4.412;2023-04-29T01:23:18;13.29;70.23
5938;DHT22;2994;51.220;4.412;2023-04-29T01:25:43;13.31;70.33
5938;DHT22;2994;51.220;4.412;2023-04-29T01:30:51;13.40;70.15
5938;DHT22;2994;51.220;4.412;2023-04-29T01:41:17;13.51;69.28
5938;DHT22;2994;51.220;4.412;2023-04-29T01:43:49;13.51;69.22
5938;DHT22;2994;51.220;4.412;2023-04-29T01:46:17;13.54;69.26
5938;DHT22;2994;51.220;4.412;2023-04-29T01:48:43;13.50;68.99
5938;DHT22;2994;51.220;4.412;2023-04-29T01:51:09;13.47;69.19
5938;DHT22;2994;51.220;4.412;2023-04-29T01:53:35;13.47;69.08
5938;DHT22;2994;51.220;4.412;2023-04-29T01:56:01;13.51;68.91
5938;DHT22;2994;51.220;4.412;2023-04-29T01:58:26;13.55;68.74
5938;DHT22;2994;51.220;4.412;2023-04-29T02:00:53;13.47;69.10
5938;DHT22;2994;51.220;4.412;2023-04-29T02:03:19;13.54;69.32
5938;DHT22;2994;51.220;4.412;2023-04-29T02:05:44;13.54;68.75
5938;DHT22;2994;51.220;4.412;2023-04-29T02:08:10;13.52;68.91
5938;DHT22;2994;51.220;4.412;2023-04-29T02:10:35;13.58;68.93
5938;DHT22;2994;51.220;4.412;2023-04-29T02:13:01;13.56;68.85
5938;DHT22;2994;51.220;4.412;2023-04-29T02:15:27;13.50;69.33
5938;DHT22;2994;51.220;4.412;2023-04-29T02:17:53;13.49;69.23
5938;DHT22;2994;51.220;4.412;2023-04-29T02:20:19;13.49;69.26
5938;DHT22;2994;51.220;4.412;2023-04-29T02:22:44;13.47;69.34
5938;DHT22;2994;51.220;4.412;2023-04-29T02:25:10;13.39;69.65
5938;DHT22;2994;51.220;4.412;2023-04-29T02:27:36;13.48;69.52
5938;DHT22;2994;51.220;4.412;2023-04-29T02:30:02;13.34;70.45
5938;DHT22;2994;51.220;4.412;2023-04-29T02:32:29;13.39;69.71
5938;DHT22;2994;51.220;4.412;2023-04-29T02:34:55;13.45;69.30
5938;DHT22;2994;51.220;4.412;2023-04-29T02:37:20;13.48;69.09
5938;DHT22;2994;51.220;4.412;2023-04-29T02:39:46;13.35;69.50
5938;DHT22;2994;51.220;4.412;2023-04-29T02:42:11;13.37;69.38
5938;DHT22;2994;51.220;4.412;2023-04-29T02:44:37;13.37;69.03
5938;DHT22;2994;51.220;4.412;2023-04-29T02:47:02;13.38;69.07
5938;DHT22;2994;51.220;4.412;2023-04-29T02:49:28;13.35;69.36
5938;DHT22;2994;51.220;4.412;2023-04-29T02:51:54;13.34;69.57
5938;DHT22;2994;51.220;4.412;2023-04-29T02:54:19;13.40;69.24
5938;DHT22;2994;51.220;4.412;2023-04-29T02:56:45;13.26;69.64
5938;DHT22;2994;51.220;4.412;2023-04-29T02:59:11;13.25;69.34
5938;DHT22;2994;51.220;4.412;2023-04-29T03:01:36;13.06;70.22
5938;DHT22;2994;51.220;4.412;2023-04-29T03:04:03;13.09;70.26
5938;DHT22;2994;51.220;4.412;2023-04-29T03:06:29;13.15;70.01
5938;DHT22;2994;51.220;4.412;2023-04-29T03:08:55;13.15;70.13
5938;DHT22;2994;51.220;4.412;2023-04-29T03:11:21;13.17;70.02
5938;DHT22;2994;51.220;4.412;2023-04-29T03:13:49;13.20;70.23
5938;DHT22;2994;51.220;4.412;2023-04-29T03:16:14;13.17;70.31
5938;DHT22;2994;51.220;4.412;2023-04-29T03:18:41;13.20;70.00
5938;DHT22;2994;51.220;4.412;2023-04-29T03:21:07;13.18;70.30
5938;DHT22;2994;51.220;4.412;2023-04-29T03:23:32;13.22;70.04
5938;DHT22;2994;51.220;4.412;2023-04-29T03:25:58;13.21;69.97
5938;DHT22;2994;51.220;4.412;2023-04-29T03:28:24;13.26;69.71
5938;DHT22;2994;51.220;4.412;2023-04-29T03:30:50;13.18;69.92
5938;DHT22;2994;51.220;4.412;2023-04-29T03:33:15;13.24;69.79
5938;DHT22;2994;51.220;4.412;2023-04-29T03:35:41;13.23;70.06
5938;DHT22;2994;51.220;4.412;2023-04-29T03:38:06;13.25;69.83
5938;DHT22;2994;51.220;4.412;2023-04-29T03:40:32;13.27;69.97
5938;DHT22;2994;51.220;4.412;2023-04-29T03:42:57;13.31;69.67
5938;DHT22;2994;51.220;4.412;2023-04-29T03:45:25;13.29;69.39
5938;DHT22;2994;51.220;4.412;2023-04-29T03:47:50;13.26;69.36
5938;DHT22;2994;51.220;4.412;2023-04-29T03:50:17;13.26;69.29
5938;DHT22;2994;51.220;4.412;2023-04-29T03:52:43;13.26;69.27
5938;DHT22;2994;51.220;4.412;2023-04-29T03:55:08;13.25;69.19
5938;DHT22;2994;51.220;4.412;2023-04-29T03:57:34;13.25;69.29
5938;DHT22;2994;51.220;4.412;2023-04-29T03:59:59;13.26;69.31
5938;DHT22;2994;51.220;4.412;2023-04-29T04:02:25;13.24;69.09
5938;DHT22;2994;51.220;4.412;2023-04-29T04:04:50;13.27;69.26
5938;DHT22;2994;51.220;4.412;2023-04-29T04:07:16;13.15;69.32
5938;DHT22;2994;51.220;4.412;2023-04-29T04:09:41;13.19;68.97
5938;DHT22;2994;51.220;4.412;2023-04-29T04:12:07;13.11;69.07
5938;DHT22;2994;51.220;4.412;2023-04-29T04:14:35;13.07;69.38
5938;DHT22;2994;51.220;4.412;2023-04-29T04:17:00;13.09;69.31
5938;DHT22;2994;51.220;4.412;2023-04-29T04:19:26;13.05;69.53
5938;DHT22;2994;51.220;4.412;2023-04-29T04:21:53;13.10;69.29
5938;DHT22;2994;51.220;4.412;2023-04-29T04:24:19;13.11;69.36
5938;DHT22;2994;51.220;4.412;2023-04-29T04:26:44;13.16;69.13
5938;DHT22;2994;51.220;4.412;2023-04-29T04:29:10;13.18;69.04
5938;DHT22;2994;51.220;4.412;2023-04-29T04:31:35;13.16;68.78
5938;DHT22;2994;51.220;4.412;2023-04-29T04:34:02;13.18;68.82
5938;DHT22;2994;51.220;4.412;2023-04-29T04:36:27;13.09;68.83
5938;DHT22;2994;51.220;4.412;2023-04-29T04:38:53;13.10;68.94
5938;DHT22;2994;51.220;4.412;2023-04-29T04:41:18;13.14;68.74
5938;DHT22;2994;51.220;4.412;2023-04-29T04:43:44;13.14;68.86
5938;DHT22;2994;51.220;4.412;2023-04-29T04:46:13;13.17;68.86
5938;DHT22;2994;51.220;4.412;2023-04-29T04:48:40;13.10;68.32
5938;DHT22;2994;51.220;4.412;2023-04-29T04:51:09;13.11;67.91
5938;DHT22;2994;51.220;4.412;2023-04-29T04:53:35;13.14;68.12
5938;DHT22;2994;51.220;4.412;2023-04-29T04:56:02;13.16;68.12
5938;DHT22;2994;51.220;4.412;2023-04-29T04:58:27;12.97;68.09
5938;DHT22;2994;51.220;4.412;2023-04-29T05:00:53;13.07;67.47
5938;DHT22;2994;51.220;4.412;2023-04-29T05:03:18;13.06;67.63
5938;DHT22;2994;51.220;4.412;2023-04-29T05:05:44;13.01;67.90
5938;DHT22;2994;51.220;4.412;2023-04-29T05:08:09;13.04;68.12
5938;DHT22;2994;51.220;4.412;2023-04-29T05:10:35;13.06;67.84
5938;DHT22;2994;51.220;4.412;2023-04-29T05:13:01;13.05;67.93
5938;DHT22;2994;51.220;4.412;2023-04-29T05:15:26;13.06;68.09
5938;DHT22;2994;51.220;4.412;2023-04-29T05:17:52;13.08;68.23
5938;DHT22;2994;51.220;4.412;2023-04-29T05:20:17;13.11;68.21
5938;DHT22;2994;51.220;4.412;2023-04-29T05:22:44;13.12;68.05
5938;DHT22;2994;51.220;4.412;2023-04-29T05:25:10;13.17;67.98
5938;DHT22;2994;51.220;4.412;2023-04-29T05:27:35;13.18;67.55
5938;DHT22;2994;51.220;4.412;2023-04-29T05:30:01;13.16;67.84
5938;DHT22;2994;51.220;4.412;2023-04-29T05:32:26;13.09;67.64
5938;DHT22;2994;51.220;4.412;2023-04-29T05:34:52;13.11;67.97
5938;DHT22;2994;51.220;4.412;2023-04-29T05:37:17;12.99;67.84
5938;DHT22;2994;51.220;4.412;2023-04-29T05:39:42;13.03;67.73
5938;DHT22;2994;51.220;4.412;2023-04-29T05:42:08;13.04;67.48
5938;DHT22;2994;51.220;4.412;2023-04-29T05:44:33;13.02;67.68
5938;DHT22;2994;51.220;4.412;2023-04-29T05:46:59;13.04;67.81
5938;DHT22;2994;51.220;4.412;2023-04-29T05:49:25;13.08;67.62
5938;DHT22;2994;51.220;4.412;2023-04-29T05:51:50;13.07;67.72
5938;DHT22;2994;51.220;4.412;2023-04-29T05:54:16;13.12;67.75
5938;DHT22;2994;51.220;4.412;2023-04-29T05:56:41;13.16;67.82
5938;DHT22;2994;51.220;4.412;2023-04-29T05:59:07;13.14;67.78
5938;DHT22;2994;51.220;4.412;2023-04-29T06:01:32;13.05;68.17
5938;DHT22;2994;51.220;4.412;2023-04-29T06:03:58;13.06;68.36
5938;DHT22;2994;51.220;4.412;2023-04-29T06:06:23;13.10;68.49
5938;DHT22;2994;51.220;4.412;2023-04-29T06:08:49;13.19;68.47
5938;DHT22;2994;51.220;4.412;2023-04-29T06:11:15;13.22;67.92
5938;DHT22;2994;51.220;4.412;2023-04-29T06:13:41;13.22;67.88
5938;DHT22;2994;51.220;4.412;2023-04-29T06:16:06;13.24;67.81
5938;DHT22;2994;51.220;4.412;2023-04-29T06:18:32;13.22;67.73
5938;DHT22;2994;51.220;4.412;2023-04-29T06:20:58;13.31;67.20
5938;DHT22;2994;51.220;4.412;2023-04-29T06:23:23;13.33;67.41
5938;DHT22;2994;51.220;4.412;2023-04-29T06:25:50;13.36;67.52
5938;DHT22;2994;51.220;4.412;2023-04-29T06:28:15;13.41;67.60
5938;DHT22;2994;51.220;4.412;2023-04-29T06:30:41;13.37;66.68
5938;DHT22;2994;51.220;4.412;2023-04-29T06:33:06;13.37;66.79
5938;DHT22;2994;51.220;4.412;2023-04-29T06:35:32;13.38;66.67
5938;DHT22;2994;51.220;4.412;2023-04-29T06:37:57;13.43;66.63
5938;DHT22;2994;51.220;4.412;2023-04-29T06:40:23;13.46;66.49
5938;DHT22;2994;51.220;4.412;2023-04-29T06:42:48;13.44;65.99
5938;DHT22;2994;51.220;4.412;2023-04-29T06:45:16;13.39;66.11
5938;DHT22;2994;51.220;4.412;2023-04-29T06:47:41;13.39;66.24
5938;DHT22;2994;51.220;4.412;2023-04-29T06:50:08;13.44;66.36
5938;DHT22;2994;51.220;4.412;2023-04-29T06:52:34;13.47;66.34
5938;DHT22;2994;51.220;4.412;2023-04-29T06:54:59;13.36;66.68
5938;DHT22;2994;51.220;4.412;2023-04-29T06:57:25;13.48;66.59
5938;DHT22;2994;51.220;4.412;2023-04-29T06:59:51;13.55;66.71
5938;DHT22;2994;51.220;4.412;2023-04-29T07:02:16;13.56;66.08
5938;DHT22;2994;51.220;4.412;2023-04-29T07:04:42;13.59;65.95
5938;DHT22;2994;51.220;4.412;2023-04-29T07:07:07;13.49;66.35
5938;DHT22;2994;51.220;4.412;2023-04-29T07:09:33;13.36;66.86
5938;DHT22;2994;51.220;4.412;2023-04-29T07:11:58;13.50;65.78
5938;DHT22;2994;51.220;4.412;2023-04-29T07:14:24;13.61;65.85
5938;DHT22;2994;51.220;4.412;2023-04-29T07:16:53;13.69;65.78
5938;DHT22;2994;51.220;4.412;2023-04-29T07:19:19;13.78;65.30
5938;DHT22;2994;51.220;4.412;2023-04-29T07:21:44;13.82;65.27
5938;DHT22;2994;51.220;4.412;2023-04-29T07:24:10;13.88;65.16
5938;DHT22;2994;51.220;4.412;2023-04-29T07:26:35;13.91;65.18
5938;DHT22;2994;51.220;4.412;2023-04-29T07:29:01;13.93;64.69
5938;DHT22;2994;51.220;4.412;2023-04-29T07:31:27;13.99;64.85
5938;DHT22;2994;51.220;4.412;2023-04-29T07:33:53;14.07;65.14
5938;DHT22;2994;51.220;4.412;2023-04-29T07:36:19;14.12;65.11
5938;DHT22;2994;51.220;4.412;2023-04-29T07:38:45;14.19;64.77
5938;DHT22;2994;51.220;4.412;2023-04-29T07:41:10;14.22;63.98
5938;DHT22;2994;51.220;4.412;2023-04-29T07:43:36;14.22;63.85
5938;DHT22;2994;51.220;4.412;2023-04-29T07:46:01;14.20;63.66
5938;DHT22;2994;51.220;4.412;2023-04-29T07:48:27;14.19;64.49
5938;DHT22;2994;51.220;4.412;2023-04-29T07:50:52;14.08;63.39
5938;DHT22;2994;51.220;4.412;2023-04-29T07:53:18;14.12;63.70
5938;DHT22;2994;51.220;4.412;2023-04-29T07:55:44;14.14;63.59
5938;DHT22;2994;51.220;4.412;2023-04-29T07:58:09;14.08;63.63
5938;DHT22;2994;51.220;4.412;2023-04-29T08:00:35;14.06;63.98
5938;DHT22;2994;51.220;4.412;2023-04-29T08:03:00;14.05;63.87
5938;DHT22;2994;51.220;4.412;2023-04-29T08:05:26;14.04;64.24
5938;DHT22;2994;51.220;4.412;2023-04-29T08:07:51;14.13;64.40
5938;DHT22;2994;51.220;4.412;2023-04-29T08:10:18;14.23;64.30
5938;DHT22;2994;51.220;4.412;2023-04-29T08:12:48;14.29;63.92
5938;DHT22;2994;51.220;4.412;2023-04-29T08:15:13;14.36;64.08
5938;DHT22;2994;51.220;4.412;2023-04-29T08:17:39;14.43;63.97
5938;DHT22;2994;51.220;4.412;2023-04-29T08:20:05;14.40;63.47
5938;DHT22;2994;51.220;4.412;2023-04-29T08:22:32;14.37;63.36
5938;DHT22;2994;51.220;4.412;2023-04-29T08:24:58;14.43;63.94
5938;DHT22;2994;51.220;4.412;2023-04-29T08:27:23;14.35;64.79
5938;DHT22;2994;51.220;4.412;2023-04-29T08:29:49;14.52;64.24
5938;DHT22;2994;51.220;4.412;2023-04-29T08:32:14;14.59;64.12
5938;DHT22;2994;51.220;4.412;2023-04-29T08:34:40;14.65;63.63
5938;DHT22;2994;51.220;4.412;2023-04-29T08:37:06;14.67;63.26
5938;DHT22;2994;51.220;4.412;2023-04-29T08:39:31;14.79;62.82
5938;DHT22;2994;51.220;4.412;2023-04-29T08:41:57;14.87;63.07
5938;DHT22;2994;51.220;4.412;2023-04-29T08:44:25;14.98;63.34
5938;DHT22;2994;51.220;4.412;2023-04-29T08:46:51;15.04;62.86
5938;DHT22;2994;51.220;4.412;2023-04-29T08:49:17;15.16;63.16
5938;DHT22;2994;51.220;4.412;2023-04-29T08:51:42;15.24;62.20
5938;DHT22;2994;51.220;4.412;2023-04-29T08:54:08;15.32;61.34
5938;DHT22;2994;51.220;4.412;2023-04-29T08:56:35;15.28;61.28
5938;DHT22;2994;51.220;4.412;2023-04-29T08:59:01;15.36;61.85
5938;DHT22;2994;51.220;4.412;2023-04-29T09:01:29;15.42;61.65
5938;DHT22;2994;51.220;4.412;2023-04-29T09:04:03;15.60;61.13
5938;DHT22;2994;51.220;4.412;2023-04-29T09:06:32;15.70;60.33
5938;DHT22;2994;51.220;4.412;2023-04-29T09:08:59;15.32;59.97
5938;DHT22;2994;51.220;4.412;2023-04-29T09:11:26;15.51;60.22
5938;DHT22;2994;51.220;4.412;2023-04-29T09:14:00;15.53;59.96
5938;DHT22;2994;51.220;4.412;2023-04-29T09:16:27;15.66;59.15
5938;DHT22;2994;51.220;4.412;2023-04-29T09:18:53;15.70;59.20
5938;DHT22;2994;51.220;4.412;2023-04-29T09:21:20;15.69;59.02
5938;DHT22;2994;51.220;4.412;2023-04-29T09:23:48;15.68;59.38
5938;DHT22;2994;51.220;4.412;2023-04-29T09:26:15;15.72;60.02
5938;DHT22;2994;51.220;4.412;2023-04-29T09:28:40;15.58;58.89
5938;DHT22;2994;51.220;4.412;2023-04-29T09:31:12;15.66;58.32
5938;DHT22;2994;51.220;4.412;2023-04-29T09:33:56;15.65;58.33
5938;DHT22;2994;51.220;4.412;2023-04-29T09:39:19;15.66;58.78
5938;DHT22;2994;51.220;4.412;2023-04-29T09:44:26;15.78;59.28
5938;DHT22;2994;51.220;4.412;2023-04-29T09:47:00;15.82;58.43
5938;DHT22;2994;51.220;4.412;2023-04-29T09:49:39;15.91;58.59
5938;DHT22;2994;51.220;4.412;2023-04-29T09:52:14;16.01;57.74
5938;DHT22;2994;51.220;4.412;2023-04-29T09:54:41;16.16;58.27
5938;DHT22;2994;51.220;4.412;2023-04-29T09:57:09;16.19;57.87
5938;DHT22;2994;51.220;4.412;2023-04-29T09:59:36;16.27;57.89
5938;DHT22;2994;51.220;4.412;2023-04-29T10:02:16;16.30;57.58
5938;DHT22;2994;51.220;4.412;2023-04-29T10:04:46;16.27;57.31
5938;DHT22;2994;51.220;4.412;2023-04-29T10:07:16;16.21;57.07
5938;DHT22;2994;51.220;4.412;2023-04-29T10:09:44;16.02;56.77
5938;DHT22;2994;51.220;4.412;2023-04-29T10:12:17;15.76;57.29
5938;DHT22;2994;51.220;4.412;2023-04-29T10:15:01;15.87;57.90
5938;DHT22;2994;51.220;4.412;2023-04-29T10:17:45;16.01;59.28
5938;DHT22;2994;51.220;4.412;2023-04-29T10:20:13;16.31;58.94
5938;DHT22;2994;51.220;4.412;2023-04-29T10:22:49;16.10;57.72
5938;DHT22;2994;51.220;4.412;2023-04-29T10:25:16;16.34;57.13
5938;DHT22;2994;51.220;4.412;2023-04-29T10:27:43;16.35;56.15
5938;DHT22;2994;51.220;4.412;2023-04-29T10:30:13;16.43;56.99
5938;DHT22;2994;51.220;4.412;2023-04-29T10:32:40;16.57;56.70
5938;DHT22;2994;51.220;4.412;2023-04-29T10:35:12;16.46;56.52
5938;DHT22;2994;51.220;4.412;2023-04-29T10:37:39;16.44;57.68
5938;DHT22;2994;51.220;4.412;2023-04-29T10:42:45;16.49;55.81
5938;DHT22;2994;51.220;4.412;2023-04-29T10:45:25;16.54;55.74
5938;DHT22;2994;51.220;4.412;2023-04-29T10:53:02;16.63;56.42
5938;DHT22;2994;51.220;4.412;2023-04-29T10:55:28;16.66;56.65
5938;DHT22;2994;51.220;4.412;2023-04-29T10:57:54;16.64;54.94
5938;DHT22;2994;51.220;4.412;2023-04-29T11:00:26;16.58;55.47
5938;DHT22;2994;51.220;4.412;2023-04-29T11:03:02;16.57;55.25
5938;DHT22;2994;51.220;4.412;2023-04-29T11:05:35;16.60;55.89
5938;DHT22;2994;51.220;4.412;2023-04-29T11:08:28;16.57;56.61
5938;DHT22;2994;51.220;4.412;2023-04-29T11:10:59;16.77;54.23
5938;DHT22;2994;51.220;4.412;2023-04-29T11:13:29;16.96;54.52
5938;DHT22;2994;51.220;4.412;2023-04-29T11:16:05;17.06;53.72
5938;DHT22;2994;51.220;4.412;2023-04-29T11:18:31;17.21;54.01
5938;DHT22;2994;51.220;4.412;2023-04-29T11:23:29;17.40;53.00
5938;DHT22;2994;51.220;4.412;2023-04-29T11:25:54;17.47;53.44
5938;DHT22;2994;51.220;4.412;2023-04-29T11:28:21;17.52;51.60
5938;DHT22;2994;51.220;4.412;2023-04-29T11:30:49;17.58;53.01
5938;DHT22;2994;51.220;4.412;2023-04-29T11:33:15;17.68;52.14
5938;DHT22;2994;51.220;4.412;2023-04-29T11:35:41;17.58;52.53
5938;DHT22;2994;51.220;4.412;2023-04-29T11:38:08;17.67;52.45
5938;DHT22;2994;51.220;4.412;2023-04-29T11:40:33;17.79;51.14
5938;DHT22;2994;51.220;4.412;2023-04-29T11:42:59;17.87;50.91
5938;DHT22;2994;51.220;4.412;2023-04-29T11:45:24;17.70;52.53
5938;DHT22;2994;51.220;4.412;2023-04-29T11:47:50;17.83;51.27
5938;DHT22;2994;51.220;4.412;2023-04-29T11:50:17;17.82;51.22
5938;DHT22;2994;51.220;4.412;2023-04-29T11:52:45;17.79;52.00
5938;DHT22;2994;51.220;4.412;2023-04-29T11:55:11;17.69;50.94
5938;DHT22;2994;51.220;4.412;2023-04-29T11:57:37;17.73;51.93
5938;DHT22;2994;51.220;4.412;2023-04-29T12:00:10;17.81;51.32
5938;DHT22;2994;51.220;4.412;2023-04-29T12:02:42;17.93;51.86
5938;DHT22;2994;51.220;4.412;2023-04-29T12:05:08;17.76;52.43
5938;DHT22;2994;51.220;4.412;2023-04-29T12:07:38;17.90;52.16
5938;DHT22;2994;51.220;4.412;2023-04-29T12:10:08;17.90;51.85
5938;DHT22;2994;51.220;4.412;2023-04-29T12:12:34;17.72;51.69
5938;DHT22;2994;51.220;4.412;2023-04-29T12:15:01;17.98;50.81
5938;DHT22;2994;51.220;4.412;2023-04-29T12:17:28;18.07;49.77
5938;DHT22;2994;51.220;4.412;2023-04-29T12:19:54;18.25;48.99
5938;DHT22;2994;51.220;4.412;2023-04-29T12:22:19;18.40;48.84
5938;DHT22;2994;51.220;4.412;2023-04-29T12:24:45;18.47;48.23
5938;DHT22;2994;51.220;4.412;2023-04-29T12:27:11;18.41;50.24
5938;DHT22;2994;51.220;4.412;2023-04-29T12:29:38;18.47;50.28
5938;DHT22;2994;51.220;4.412;2023-04-29T12:32:05;18.74;48.02
5938;DHT22;2994;51.220;4.412;2023-04-29T12:34:31;18.67;48.39
5938;DHT22;2994;51.220;4.412;2023-04-29T12:37:00;18.40;48.24
5938;DHT22;2994;51.220;4.412;2023-04-29T12:39:27;18.46;47.97
5938;DHT22;2994;51.220;4.412;2023-04-29T12:41:59;18.13;48.57
5938;DHT22;2994;51.220;4.412;2023-04-29T12:44:25;17.72;49.34
5938;DHT22;2994;51.220;4.412;2023-04-29T12:46:50;17.95;48.98
5938;DHT22;2994;51.220;4.412;2023-04-29T12:49:20;18.09;48.85
5938;DHT22;2994;51.220;4.412;2023-04-29T12:51:48;18.10;49.78
5938;DHT22;2994;51.220;4.412;2023-04-29T12:54:14;18.04;49.83
5938;DHT22;2994;51.220;4.412;2023-04-29T12:56:40;18.08;50.34
5938;DHT22;2994;51.220;4.412;2023-04-29T12:59:06;18.11;48.65
5938;DHT22;2994;51.220;4.412;2023-04-29T13:01:32;18.17;48.41
5938;DHT22;2994;51.220;4.412;2023-04-29T13:03:57;18.20;48.64
5938;DHT22;2994;51.220;4.412;2023-04-29T13:06:23;18.27;48.65
5938;DHT22;2994;51.220;4.412;2023-04-29T13:08:48;18.24;48.95
5938;DHT22;2994;51.220;4.412;2023-04-29T13:11:15;18.33;48.66
5938;DHT22;2994;51.220;4.412;2023-04-29T13:13:41;18.49;49.47
5938;DHT22;2994;51.220;4.412;2023-04-29T13:16:07;18.63;48.14
5938;DHT22;2994;51.220;4.412;2023-04-29T13:18:32;18.44;48.87
5938;DHT22;2994;51.220;4.412;2023-04-29T13:20:58;18.39;49.47
5938;DHT22;2994;51.220;4.412;2023-04-29T13:23:23;18.50;49.08
5938;DHT22;2994;51.220;4.412;2023-04-29T13:25:49;18.49;46.89
5938;DHT22;2994;51.220;4.412;2023-04-29T13:28:15;18.41;48.25
5938;DHT22;2994;51.220;4.412;2023-04-29T13:30:41;18.39;47.25
5938;DHT22;2994;51.220;4.412;2023-04-29T13:33:06;18.27;46.28
5938;DHT22;2994;51.220;4.412;2023-04-29T13:35:32;18.32;47.94
5938;DHT22;2994;51.220;4.412;2023-04-29T13:38:00;18.15;49.87
5938;DHT22;2994;51.220;4.412;2023-04-29T13:40:26;18.19;49.63
5938;DHT22;2994;51.220;4.412;2023-04-29T13:42:52;18.28;49.81
5938;DHT22;2994;51.220;4.412;2023-04-29T13:45:17;18.33;48.40
5938;DHT22;2994;51.220;4.412;2023-04-29T13:47:42;18.37;48.18
5938;DHT22;2994;51.220;4.412;2023-04-29T13:50:09;18.39;48.28
5938;DHT22;2994;51.220;4.412;2023-04-29T13:52:34;18.23;49.47
5938;DHT22;2994;51.220;4.412;2023-04-29T13:55:00;18.34;47.92
5938;DHT22;2994;51.220;4.412;2023-04-29T13:57:25;18.30;48.41
5938;DHT22;2994;51.220;4.412;2023-04-29T13:59:52;18.29;49.66
5938;DHT22;2994;51.220;4.412;2023-04-29T14:02:19;18.23;47.38
5938;DHT22;2994;51.220;4.412;2023-04-29T14:04:45;18.06;46.12
5938;DHT22;2994;51.220;4.412;2023-04-29T14:07:10;17.98;46.78
5938;DHT22;2994;51.220;4.412;2023-04-29T14:09:36;18.04;47.72
5938;DHT22;2994;51.220;4.412;2023-04-29T14:12:01;18.10;47.25
5938;DHT22;2994;51.220;4.412;2023-04-29T14:14:27;18.09;49.67
5938;DHT22;2994;51.220;4.412;2023-04-29T14:16:52;18.09;46.54
5938;DHT22;2994;51.220;4.412;2023-04-29T14:19:18;18.14;47.44
5938;DHT22;2994;51.220;4.412;2023-04-29T14:21:43;18.21;48.84
5938;DHT22;2994;51.220;4.412;2023-04-29T14:24:09;18.19;46.71
5938;DHT22;2994;51.220;4.412;2023-04-29T14:26:34;18.17;46.30
5938;DHT22;2994;51.220;4.412;2023-04-29T14:29:01;18.22;47.56
5938;DHT22;2994;51.220;4.412;2023-04-29T14:31:28;18.27;46.86
5938;DHT22;2994;51.220;4.412;2023-04-29T14:33:54;18.34;47.38
5938;DHT22;2994;51.220;4.412;2023-04-29T14:36:20;18.37;45.80
5938;DHT22;2994;51.220;4.412;2023-04-29T14:38:45;18.34;46.63
5938;DHT22;2994;51.220;4.412;2023-04-29T14:41:11;18.44;46.00
5938;DHT22;2994;51.220;4.412;2023-04-29T14:43:36;18.46;45.84
5938;DHT22;2994;51.220;4.412;2023-04-29T14:46:02;18.39;46.64
5938;DHT22;2994;51.220;4.412;2023-04-29T14:48:27;18.51;47.44
5938;DHT22;2994;51.220;4.412;2023-04-29T14:50:53;18.55;47.34
5938;DHT22;2994;51.220;4.412;2023-04-29T14:53:19;18.38;46.99
5938;DHT22;2994;51.220;4.412;2023-04-29T14:55:48;18.54;47.57
5938;DHT22;2994;51.220;4.412;2023-04-29T14:58:13;18.55;47.20
5938;DHT22;2994;51.220;4.412;2023-04-29T15:00:39;18.55;45.41
5938;DHT22;2994;51.220;4.412;2023-04-29T15:03:04;18.66;45.73
5938;DHT22;2994;51.220;4.412;2023-04-29T15:05:30;18.92;44.16
5938;DHT22;2994;51.220;4.412;2023-04-29T15:07:55;19.23;43.10
5938;DHT22;2994;51.220;4.412;2023-04-29T15:10:22;20.05;42.98
5938;DHT22;2994;51.220;4.412;2023-04-29T15:12:48;20.42;43.35
5938;DHT22;2994;51.220;4.412;2023-04-29T15:15:15;20.40;41.84
5938;DHT22;2994;51.220;4.412;2023-04-29T15:17:41;20.32;41.40
5938;DHT22;2994;51.220;4.412;2023-04-29T15:20:06;20.05;41.37
5938;DHT22;2994;51.220;4.412;2023-04-29T15:22:32;19.63;42.85
5938;DHT22;2994;51.220;4.412;2023-04-29T15:24:57;19.52;44.04
5938;DHT22;2994;51.220;4.412;2023-04-29T15:27:23;19.31;45.59
5938;DHT22;2994;51.220;4.412;2023-04-29T15:29:49;19.20;46.25
5938;DHT22;2994;51.220;4.412;2023-04-29T15:32:17;18.81;47.60
5938;DHT22;2994;51.220;4.412;2023-04-29T15:34:42;18.80;48.13
5938;DHT22;2994;51.220;4.412;2023-04-29T15:37:08;18.76;48.64
5938;DHT22;2994;51.220;4.412;2023-04-29T15:39:33;18.53;48.57
5938;DHT22;2994;51.220;4.412;2023-04-29T15:41:59;18.57;49.56
5938;DHT22;2994;51.220;4.412;2023-04-29T15:44:24;18.50;48.92
5938;DHT22;2994;51.220;4.412;2023-04-29T15:46:50;18.42;49.63
5938;DHT22;2994;51.220;4.412;2023-04-29T15:49:15;18.54;49.71
5938;DHT22;2994;51.220;4.412;2023-04-29T15:51:41;18.57;49.82
5938;DHT22;2994;51.220;4.412;2023-04-29T15:54:06;18.66;50.25
5938;DHT22;2994;51.220;4.412;2023-04-29T15:56:32;18.80;50.00
5938;DHT22;2994;51.220;4.412;2023-04-29T15:58:57;19.01;49.38
5938;DHT22;2994;51.220;4.412;2023-04-29T16:01:23;18.76;49.80
5938;DHT22;2994;51.220;4.412;2023-04-29T16:03:48;18.44;50.86
5938;DHT22;2994;51.220;4.412;2023-04-29T16:06:15;18.40;51.67
5938;DHT22;2994;51.220;4.412;2023-04-29T16:08:40;21.29;43.59
5938;DHT22;2994;51.220;4.412;2023-04-29T16:11:06;22.91;44.00
5938;DHT22;2994;51.220;4.412;2023-04-29T16:13:31;28.49;32.16
5938;DHT22;2994;51.220;4.412;2023-04-29T16:15:57;31.09;28.25
5938;DHT22;2994;51.220;4.412;2023-04-29T16:18:22;32.11;24.75
5938;DHT22;2994;51.220;4.412;2023-04-29T16:20:48;29.61;25.88
5938;DHT22;2994;51.220;4.412;2023-04-29T16:23:13;28.06;29.68
5938;DHT22;2994;51.220;4.412;2023-04-29T16:25:39;26.40;31.51